Time;durP1;ratioP1;P1;durP2;ratioP2;P2;SDS_P1;SDS_P2;PMS_P1;PMS_P2;Temp;Humidity;BMP_temperature;BMP_pressure;BME280_temperature;BME280_humidity;BME280_pressure;Samples;Min_cycle;Max_cycle;Signal;HPM_P1;HPM_P2
2021/11/11 07:34:28;;;;;;;70.07;12.57;;;;;;;-0.88;100.00;99758.94;5090730;27;20697;-80
2021/11/11 07:36:55;;;;;;;60.20;13.67;;;;;;;-0.79;100.00;99777.03;5088335;28;20102;-80
2021/11/11 07:39:24;;;;;;;61.63;16.10;;;;;;;-0.80;100.00;99778.00;5072032;28;20171;-80
2021/11/11 07:41:51;;;;;;;58.13;14.93;;;;;;;-0.68;100.00;99776.34;5068755;28;20210;-80
2021/11/11 07:44:18;;;;;;;62.40;19.53;;;;;;;-0.72;100.00;99764.16;5084393;28;20048;-80
2021/11/11 07:46:44;;;;;;;44.80;16.87;;;;;;;-0.58;100.00;99776.63;5089357;28;20056;-80
2021/11/11 07:49:11;;;;;;;64.47;18.50;;;;;;;-0.43;100.00;99769.44;5088071;28;20044;-80
2021/11/11 07:51:39;;;;;;;56.33;17.77;;;;;;;-0.48;100.00;99767.06;5083699;28;20056;-80
2021/11/11 07:54:06;;;;;;;39.47;11.27;;;;;;;-0.59;100.00;99772.22;5076732;28;20044;-80
2021/11/11 07:56:35;;;;;;;48.70;15.60;;;;;;;-0.44;100.00;99783.75;5089442;28;20044;-79
2021/11/11 07:59:03;;;;;;;51.33;15.18;;;;;;;-0.38;100.00;99784.22;5089281;28;20152;-80
2021/11/11 08:01:29;;;;;;;47.77;15.87;;;;;;;-0.40;100.00;99783.44;5070766;28;20126;-80
2021/11/11 08:03:56;;;;;;;42.93;13.90;;;;;;;-0.33;100.00;99762.53;5068868;28;20538;-80
2021/11/11 08:06:23;;;;;;;47.67;14.10;;;;;;;-0.31;100.00;99765.09;5079808;28;20097;-80
2021/11/11 08:08:51;;;;;;;54.90;13.43;;;;;;;-0.31;100.00;99744.56;5087088;28;20040;-80
2021/11/11 08:11:18;;;;;;;51.43;14.17;;;;;;;-0.18;100.00;99768.69;5080981;28;20239;-80
2021/11/11 08:13:46;;;;;;;49.30;13.57;;;;;;;-0.08;100.00;99766.25;5068547;28;20062;-80
2021/11/11 08:16:13;;;;;;;110.03;21.23;;;;;;;-0.13;100.00;99779.06;5069617;28;20049;-80
2021/11/11 08:18:39;;;;;;;111.05;20.08;;;;;;;0.01;100.00;99778.16;5089189;28;20048;-80
2021/11/11 08:21:06;;;;;;;77.55;18.27;;;;;;;0.10;100.00;99777.53;5088677;28;20094;-80
2021/11/11 08:23:34;;;;;;;49.67;12.25;;;;;;;0.10;100.00;99785.53;5087403;28;20064;-80
2021/11/11 08:26:05;;;;;;;49.22;13.90;;;;;;;0.12;100.00;99799.66;5085100;28;20040;-80
2021/11/11 08:28:32;;;;;;;69.68;17.05;;;;;;;0.04;100.00;99804.69;5088159;28;20143;-80
2021/11/11 08:30:59;;;;;;;56.83;13.38;;;;;;;-0.03;100.00;99786.38;5088760;28;20121;-80
2021/11/11 08:33:26;;;;;;;52.60;13.05;;;;;;;0.15;100.00;99794.97;5087078;28;20098;-80
2021/11/11 08:35:53;;;;;;;56.63;14.13;;;;;;;0.13;100.00;99790.69;5088746;28;20044;-80
2021/11/11 08:38:21;;;;;;;36.22;12.13;;;;;;;0.38;100.00;99791.69;5081265;28;20059;-80
2021/11/11 08:40:48;;;;;;;53.10;14.13;;;;;;;0.34;100.00;99786.53;5067840;28;20084;-79
2021/11/11 08:43:17;;;;;;;61.58;12.13;;;;;;;0.32;100.00;99791.16;5076346;28;20052;-80
2021/11/11 08:45:44;;;;;;;46.67;11.98;;;;;;;0.30;100.00;99790.41;5074550;28;20048;-80
2021/11/11 08:48:11;;;;;;;65.72;11.00;;;;;;;0.31;100.00;99800.13;5074982;28;20049;-80
2021/11/11 08:50:38;;;;;;;30.67;10.98;;;;;;;0.32;100.00;99801.84;5069443;28;20136;-80
2021/11/11 08:53:06;;;;;;;56.60;12.82;;;;;;;0.28;100.00;99797.66;5054323;28;20098;-80
2021/11/11 08:55:34;;;;;;;81.82;13.27;;;;;;;0.40;100.00;99814.72;5068942;28;20090;-80
2021/11/11 08:58:02;;;;;;;112.70;12.88;;;;;;;0.39;100.00;99807.63;5074824;28;20109;-80
2021/11/11 09:00:33;;;;;;;89.20;13.02;;;;;;;0.56;100.00;99814.53;5072489;28;20049;-80
2021/11/11 09:03:02;;;;;;;57.38;10.55;;;;;;;0.52;100.00;99821.03;5074351;28;20091;-80
2021/11/11 09:05:32;;;;;;;32.90;11.27;;;;;;;0.60;100.00;99813.34;5073883;28;20065;-80
2021/11/11 09:08:00;;;;;;;46.88;15.45;;;;;;;0.65;100.00;99824.59;5074443;28;20052;-80
2021/11/11 09:10:27;;;;;;;44.20;12.10;;;;;;;0.75;100.00;99827.47;5073839;28;20049;-81
2021/11/11 09:12:54;;;;;;;127.20;14.18;;;;;;;0.60;100.00;99817.84;5073864;28;20561;-80
2021/11/11 09:15:24;;;;;;;93.50;13.05;;;;;;;0.78;100.00;99829.94;5067595;28;20049;-80
2021/11/11 09:17:54;;;;;;;41.22;13.10;;;;;;;0.82;100.00;99835.97;5073522;28;20565;-80
2021/11/11 09:20:20;;;;;;;;;;;;;;;0.95;100.00;99826.13;5072182;28;20434;-80
2021/11/11 09:22:48;;;;;;;74.00;13.32;;;;;;;0.89;100.00;99813.16;5053826;28;20357;-79
2021/11/11 09:25:15;;;;;;;38.97;13.45;;;;;;;1.05;100.00;99819.16;5054376;28;20064;-80
2021/11/11 09:27:43;;;;;;;62.35;15.23;;;;;;;1.08;100.00;99823.41;5054925;28;20098;-80
2021/11/11 09:30:14;;;;;;;52.78;13.23;;;;;;;1.17;100.00;99819.25;5054538;28;20048;-80
2021/11/11 09:32:41;;;;;;;55.80;13.35;;;;;;;1.05;100.00;99823.63;5059312;28;20049;-80
2021/11/11 09:35:10;;;;;;;52.28;14.63;;;;;;;1.26;100.00;99833.81;5062779;28;20044;-80
2021/11/11 09:37:38;;;;;;;50.83;14.95;;;;;;;1.22;100.00;99830.50;5067028;28;20036;-79
2021/11/11 09:40:08;;;;;;;69.32;13.65;;;;;;;0.98;100.00;99841.97;5064312;28;20045;-80
2021/11/11 09:42:35;;;;;;;;;;;;;;;1.09;100.00;99833.19;5065023;28;20052;-80
2021/11/11 09:45:02;;;;;;;37.75;13.52;;;;;;;1.13;100.00;99821.28;5073573;28;19920;-80
2021/11/11 09:47:30;;;;;;;44.53;14.20;;;;;;;1.18;100.00;99829.84;5073250;28;20080;-80
2021/11/11 09:49:57;;;;;;;35.05;12.13;;;;;;;0.97;100.00;99826.00;5073686;28;20454;-80
2021/11/11 09:52:25;;;;;;;42.08;14.10;;;;;;;1.27;100.00;99841.75;5059742;28;20053;-79
2021/11/11 10:00:24;;;;;;;37.33;13.20;;;;;;;1.43;100.00;99833.47;5073464;28;20479;-80
2021/11/11 10:02:51;;;;;;;;;;;;;;;1.51;100.00;99836.44;5073765;28;20080;-80
2021/11/11 10:05:18;;;;;;;41.72;15.68;;;;;;;1.47;100.00;99848.34;5073642;28;19928;-79
2021/11/11 10:07:46;;;;;;;51.55;13.90;;;;;;;1.33;100.00;99832.41;5063094;28;20049;-80
2021/11/11 10:10:30;;;;;;;39.42;14.45;;;;;;;1.68;100.00;99842.41;5053372;28;20480;-79
2021/11/11 10:13:13;;;;;;;53.63;15.23;;;;;;;1.76;100.00;99831.97;5058447;28;20078;-79
2021/11/11 10:15:58;;;;;;;50.63;14.02;;;;;;;1.86;100.00;99832.16;5066089;28;20064;-79
2021/11/11 10:18:43;;;;;;;41.97;13.82;;;;;;;1.73;100.00;99816.09;5072679;28;20052;-79
2021/11/11 10:21:33;;;;;;;41.45;15.02;;;;;;;1.91;100.00;99825.50;5073163;28;20103;-79
2021/11/11 10:24:21;;;;;;;52.70;15.27;;;;;;;1.97;100.00;99829.53;5062358;28;20420;-79
2021/11/11 10:26:56;;;;;;;44.03;15.15;;;;;;;1.85;100.00;99827.75;5053009;28;20386;-80
2021/11/11 10:29:30;;;;;;;33.58;14.93;;;;;;;1.91;100.00;99824.63;5059947;28;20127;-79
2021/11/11 10:32:04;;;;;;;31.65;14.00;;;;;;;1.86;100.00;99822.28;5068000;28;20049;-79
2021/11/11 10:34:31;;;;;;;47.05;15.88;;;;;;;1.76;100.00;99808.72;5070290;28;20072;-80
2021/11/11 10:36:58;;;;;;;59.33;15.48;;;;;;;1.75;100.00;99823.09;5053049;28;20052;-79
2021/11/11 10:39:29;;;;;;;34.25;13.50;;;;;;;1.71;100.00;99813.53;5052939;28;20045;-80
2021/11/11 10:41:59;;;;;;;44.88;15.25;;;;;;;1.77;100.00;99821.13;5066929;28;20121;-80
2021/11/11 10:44:30;;;;;;;35.45;15.68;;;;;;;1.91;100.00;99819.25;5064668;28;20056;-80
2021/11/11 10:47:00;;;;;;;40.53;15.85;;;;;;;1.95;100.00;99812.72;5069349;28;20044;-79
2021/11/11 10:49:33;;;;;;;34.67;16.65;;;;;;;1.98;100.00;99815.16;5067568;28;20052;-79
2021/11/11 10:52:36;;;;;;;34.97;16.33;;;;;;;1.87;100.00;99824.00;5071400;28;20048;-80
2021/11/11 10:55:11;;;;;;;39.40;15.70;;;;;;;1.80;100.00;99811.16;5072284;28;20044;-80
2021/11/11 10:57:43;;;;;;;30.85;15.70;;;;;;;1.79;100.00;99809.44;5070405;28;20474;-79
2021/11/11 11:00:18;;;;;;;33.03;18.20;;;;;;;1.92;100.00;99796.84;5072594;28;20052;-80
2021/11/11 11:03:07;;;;;;;27.90;17.15;;;;;;;1.94;100.00;99822.59;5068945;28;20438;-79
2021/11/11 11:05:38;;;;;;;45.72;17.40;;;;;;;2.05;100.00;99807.53;5049720;28;20053;-80
2021/11/11 11:08:08;;;;;;;39.05;16.70;;;;;;;2.06;100.00;99809.22;5062278;28;20044;-79
2021/11/11 11:10:39;;;;;;;33.70;16.95;;;;;;;2.15;100.00;99826.47;5067914;28;20041;-80
2021/11/11 11:13:09;;;;;;;33.15;16.35;;;;;;;2.05;100.00;99818.25;5061106;28;20142;-79
2021/11/11 11:15:54;;;;;;;30.33;17.60;;;;;;;2.18;100.00;99820.88;5055516;28;20388;-80
2021/11/11 11:18:23;;;;;;;40.20;16.70;;;;;;;2.20;100.00;99825.16;5071517;28;20052;-80
2021/11/11 11:20:54;;;;;;;37.17;17.13;;;;;;;2.25;100.00;99809.56;5072534;28;20113;-80
2021/11/11 11:23:29;;;;;;;37.03;18.08;;;;;;;2.33;100.00;99819.69;5071361;28;20051;-80
2021/11/11 11:26:16;;;;;;;31.80;17.83;;;;;;;2.34;100.00;99807.16;5072467;28;20520;-80
2021/11/11 11:28:51;;;;;;;34.92;17.08;;;;;;;2.28;100.00;99808.47;5068086;28;20041;-80
2021/11/11 11:31:35;;;;;;;36.88;18.58;;;;;;;2.42;100.00;99802.91;5052053;28;20055;-80
2021/11/11 11:34:08;;;;;;;31.23;18.58;;;;;;;2.40;100.00;99798.66;5061114;28;20041;-80
2021/11/11 11:36:39;;;;;;;58.40;20.33;;;;;;;2.51;100.00;99793.28;5063976;28;20557;-80
2021/11/11 11:39:07;;;;;;;47.13;20.83;;;;;;;2.41;100.00;99794.97;5071391;28;20501;-80
2021/11/11 11:41:38;;;;;;;50.08;22.38;;;;;;;2.44;100.00;99800.13;5071109;28;20052;-80
2021/11/11 11:44:28;;;;;;;42.05;19.88;;;;;;;2.38;100.00;99796.06;5072098;28;20098;-80
2021/11/11 11:47:17;;;;;;;41.33;19.48;;;;;;;2.52;100.00;99786.97;5052860;28;20068;-80
2021/11/11 11:49:46;;;;;;;43.60;21.63;;;;;;;2.57;100.00;99773.19;5052297;28;20144;-80
2021/11/11 11:52:14;;;;;;;45.13;19.40;;;;;;;2.50;100.00;99782.69;5070260;28;20392;-79
2021/11/11 11:57:32;;;;;;;37.35;19.15;;;;;;;2.47;100.00;99784.63;5071562;28;20084;-80
2021/11/11 12:00:04;;;;;;;38.35;19.30;;;;;;;2.43;100.00;99799.25;5071952;28;20051;-80
2021/11/11 12:02:50;;;;;;;42.60;20.70;;;;;;;2.43;100.00;99787.66;5058446;28;20393;-81
2021/11/11 12:05:35;;;;;;;47.58;21.58;;;;;;;2.34;100.00;99777.66;5050919;28;20142;-81
2021/11/11 12:08:25;;;;;;;49.50;21.38;;;;;;;2.40;100.00;99769.97;5064925;28;20048;-80
2021/11/11 12:14:22;;;;;;;39.58;20.17;;;;;;;2.67;100.00;99782.25;5107913;27;20752;-81
2021/11/11 12:17:14;;;;;;;48.60;22.77;;;;;;;2.81;100.00;99778.47;5109958;28;20388;-80
2021/11/11 12:39:33;;;;;;;46.72;21.85;;;;;;;2.90;100.00;99736.59;5109774;28;20062;-81
2021/11/11 12:42:03;;;;;;;47.83;22.75;;;;;;;2.96;100.00;99736.13;5099970;28;20045;-81
2021/11/11 12:44:31;;;;;;;48.85;21.92;;;;;;;2.98;100.00;99737.72;5089051;28;20048;-81
2021/11/11 12:47:00;;;;;;;43.65;22.83;;;;;;;3.09;100.00;99730.63;5090077;28;20384;-80
2021/11/11 12:49:30;;;;;;;40.92;22.70;;;;;;;3.16;100.00;99719.28;5088148;28;20503;-81
2021/11/11 12:52:21;;;;;;;42.40;21.27;;;;;;;3.05;100.00;99738.06;5089674;28;20507;-81
2021/11/11 12:54:50;;;;;;;40.47;20.85;;;;;;;3.03;100.00;99742.72;5078050;28;20048;-80
2021/11/11 12:57:20;;;;;;;46.50;23.17;;;;;;;3.19;100.00;99718.16;5089804;28;20048;-80
2021/11/11 12:59:47;;;;;;;44.72;21.95;;;;;;;3.38;100.00;99730.09;5088977;28;20087;-80
2021/11/11 13:02:15;;;;;;;35.70;21.17;;;;;;;3.22;100.00;99727.78;5089432;28;20074;-81
2021/11/11 13:04:58;;;;;;;43.88;22.33;;;;;;;3.31;100.00;99721.66;5109136;28;20052;-80
2021/11/11 13:07:28;;;;;;;44.42;23.95;;;;;;;3.36;100.00;99730.22;5087437;28;20059;-80
2021/11/11 13:10:09;;;;;;;40.65;21.77;;;;;;;3.25;100.00;99719.50;5105993;28;20668;-81
2021/11/11 13:12:37;;;;;;;41.35;20.83;;;;;;;3.04;100.00;99719.38;5108547;28;20043;-81
2021/11/11 13:15:09;;;;;;;31.88;16.98;;;;;;;2.96;100.00;99722.69;5095121;28;20491;-81
2021/11/11 13:17:44;;;;;;;38.25;21.55;;;;;;;2.80;100.00;99710.50;5088546;28;20106;-80
2021/11/11 13:20:32;;;;;;;41.90;21.35;;;;;;;2.94;100.00;99721.97;5088781;28;20427;-80
2021/11/11 14:01:07;;;;;;;39.15;20.92;;;;;;;2.88;100.00;99728.69;5074504;28;20075;-81
2021/11/11 15:16:54;;;;;;;54.00;23.15;;;;;;;2.10;100.00;99757.06;5093343;28;20044;-79
2021/11/11 16:01:32;;;;;;;93.93;25.08;;;;;;;1.91;100.00;99779.91;5071447;28;20055;-79
2021/11/11 16:20:45;;;;;;;93.68;28.05;;;;;;;1.80;100.00;99798.59;5071816;28;20056;-79
2021/11/11 16:23:19;;;;;;;59.00;25.27;;;;;;;1.77;100.00;99791.63;5073003;28;20045;-79
2021/11/11 16:26:11;;;;;;;80.40;29.60;;;;;;;1.80;100.00;99795.94;5072123;28;20103;-79
2021/11/11 16:28:42;;;;;;;107.55;29.90;;;;;;;1.76;100.00;99795.31;5071780;28;20066;-79
2021/11/11 16:31:09;;;;;;;101.18;37.50;;;;;;;1.81;100.00;99800.34;5071171;28;20063;-79
2021/11/11 16:33:36;;;;;;;102.05;31.30;;;;;;;1.80;100.00;99805.81;5069334;28;20094;-79
2021/11/11 16:36:03;;;;;;;82.88;28.50;;;;;;;2.01;100.00;99806.88;5071544;28;20145;-79
2021/11/11 16:38:30;;;;;;;88.38;22.88;;;;;;;1.75;100.00;99798.09;5073101;28;20106;-79
2021/11/11 16:40:57;;;;;;;83.35;26.67;;;;;;;1.85;100.00;99798.28;5071506;28;20048;-79
2021/11/11 16:43:24;;;;;;;128.88;31.48;;;;;;;1.71;100.00;99793.94;5071050;28;20076;-79
2021/11/11 16:45:53;;;;;;;115.65;30.05;;;;;;;1.79;100.00;99799.56;5071069;28;20049;-79
2021/11/11 16:48:20;;;;;;;113.65;27.05;;;;;;;1.90;100.00;99798.81;5070437;28;20423;-79
2021/11/11 16:50:50;;;;;;;173.52;38.60;;;;;;;1.98;100.00;99801.75;5069989;28;20048;-84
2021/11/11 16:53:18;;;;;;;97.78;31.83;;;;;;;1.75;100.00;99801.63;5071564;28;20045;-84
2021/11/11 16:55:44;;;;;;;67.78;24.98;;;;;;;1.87;100.00;99815.97;5073001;28;20408;-80
2021/11/11 16:58:13;;;;;;;69.50;25.67;;;;;;;1.84;100.00;99812.66;5072189;28;20052;-80
2021/11/11 17:00:42;;;;;;;89.15;26.90;;;;;;;1.77;100.00;99820.28;5074150;28;20557;-80
2021/11/11 17:03:14;;;;;;;97.70;26.37;;;;;;;1.65;100.00;99803.28;5073163;28;20122;-80
2021/11/11 17:05:41;;;;;;;97.70;32.30;;;;;;;1.81;100.00;99815.53;5076002;28;20293;-80
2021/11/11 17:08:08;;;;;;;57.20;27.65;;;;;;;1.79;100.00;99814.81;5075193;28;20094;-80
2021/11/11 17:10:35;;;;;;;77.93;32.78;;;;;;;1.87;100.00;99824.00;5080470;28;20110;-80
2021/11/11 17:13:03;;;;;;;158.00;38.67;;;;;;;1.73;100.00;99813.44;5075767;28;20086;-80
2021/11/11 17:15:32;;;;;;;127.55;39.03;;;;;;;1.81;100.00;99812.88;5074936;28;20049;-80
2021/11/11 17:18:00;;;;;;;136.60;31.25;;;;;;;1.85;100.00;99812.56;5073784;28;20102;-80
2021/11/11 17:20:32;;;;;;;85.57;27.05;;;;;;;1.75;100.00;99817.72;5073892;28;20048;-80
2021/11/11 17:23:00;;;;;;;115.43;26.13;;;;;;;1.70;100.00;99817.22;5074804;28;20151;-80
2021/11/11 17:25:35;;;;;;;108.28;44.30;;;;;;;1.68;100.00;99811.09;5073485;28;20059;-80
2021/11/11 17:30:58;;;;;;;79.78;26.63;;;;;;;1.70;100.00;99825.25;5067447;28;20120;-80
2021/11/11 17:33:26;;;;;;;149.93;49.37;;;;;;;1.63;100.00;99823.13;5052084;28;20111;-80
2021/11/11 17:35:55;;;;;;;103.85;33.83;;;;;;;1.61;100.00;99823.22;5084328;28;20458;-81
2021/11/11 17:38:24;;;;;;;96.55;27.27;;;;;;;1.64;100.00;99825.72;5076493;28;20450;-80
2021/11/11 17:40:53;;;;;;;93.28;22.13;;;;;;;1.49;100.00;99819.63;5074463;28;20053;-80
2021/11/11 17:43:21;;;;;;;58.97;24.67;;;;;;;1.48;100.00;99825.09;5073268;28;20048;-80
2021/11/11 17:45:54;;;;;;;68.47;23.73;;;;;;;1.50;100.00;99823.16;5073843;28;20487;-80
2021/11/11 17:48:21;;;;;;;73.15;22.25;;;;;;;1.40;100.00;99833.66;5073880;28;20294;-80
2021/11/11 17:50:55;;;;;;;70.63;23.48;;;;;;;1.46;100.00;99835.94;5075301;28;20056;-80
2021/11/11 17:53:28;;;;;;;61.28;25.02;;;;;;;1.51;100.00;99836.44;5073741;28;20076;-80
2021/11/11 17:55:57;;;;;;;56.95;23.63;;;;;;;1.39;100.00;99810.53;5073364;28;20059;-80
2021/11/11 17:58:25;;;;;;;86.00;24.92;;;;;;;1.54;100.00;99827.34;5072569;28;20415;-80
2021/11/11 18:00:54;;;;;;;93.95;33.83;;;;;;;1.47;100.00;99821.53;5073427;28;20044;-80
2021/11/11 18:03:22;;;;;;;76.28;24.83;;;;;;;1.35;100.00;99825.09;5073733;28;20098;-80
2021/11/11 18:05:53;;;;;;;66.78;25.92;;;;;;;1.37;100.00;99823.16;5085452;28;20560;-80
2021/11/11 18:08:29;;;;;;;80.50;22.38;;;;;;;1.23;100.00;99821.47;5083076;28;20055;-80
2021/11/11 18:10:59;;;;;;;66.93;22.50;;;;;;;1.26;100.00;99807.03;5073215;28;20103;-80
2021/11/11 18:13:28;;;;;;;56.65;24.38;;;;;;;1.24;100.00;99818.69;5071325;28;20063;-80
2021/11/11 18:15:58;;;;;;;57.15;21.10;;;;;;;1.29;100.00;99831.75;5073654;28;20090;-80
2021/11/11 18:18:24;;;;;;;67.60;23.42;;;;;;;1.20;100.00;99822.53;5073036;28;20569;-80
2021/11/11 18:20:51;;;;;;;73.47;31.15;;;;;;;1.33;100.00;99827.91;5073787;28;20044;-80
2021/11/11 18:23:21;;;;;;;53.38;25.42;;;;;;;1.31;100.00;99835.19;5072532;28;20389;-80
2021/11/11 18:25:48;;;;;;;56.17;24.80;;;;;;;1.33;100.00;99840.44;5074267;28;20491;-80
2021/11/11 18:28:22;;;;;;;72.78;24.17;;;;;;;1.29;100.00;99823.72;5074070;28;20121;-80
2021/11/11 18:30:52;;;;;;;71.13;29.60;;;;;;;1.19;100.00;99828.00;5073368;28;20048;-80
2021/11/11 18:33:21;;;;;;;84.13;24.13;;;;;;;1.15;100.00;99824.72;5072358;28;20124;-80
2021/11/11 18:35:51;;;;;;;64.00;23.50;;;;;;;1.12;100.00;99832.97;5083360;28;20044;-80
2021/11/11 18:38:19;;;;;;;67.65;27.50;;;;;;;1.17;100.00;99828.13;5093434;28;20059;-80
2021/11/11 18:40:50;;;;;;;61.03;22.95;;;;;;;1.14;100.00;99833.69;5092672;28;20056;-80
2021/11/11 18:43:19;;;;;;;76.88;27.77;;;;;;;1.15;100.00;99832.75;5079253;28;20056;-81
2021/11/11 18:45:48;;;;;;;66.22;23.48;;;;;;;1.06;100.00;99817.31;5073063;28;20561;-81
2021/11/11 18:48:27;;;;;;;83.93;26.27;;;;;;;1.02;100.00;99816.69;5073170;28;20139;-80
2021/11/11 18:50:58;;;;;;;66.75;23.02;;;;;;;1.05;100.00;99819.16;5073966;28;20040;-80
2021/11/11 18:53:27;;;;;;;80.85;22.92;;;;;;;1.03;100.00;99814.88;5073016;28;20048;-80
2021/11/11 18:55:54;;;;;;;85.20;24.77;;;;;;;1.02;100.00;99806.00;5076564;28;20089;-80
2021/11/11 18:58:26;;;;;;;84.88;22.52;;;;;;;1.14;100.00;99822.97;5092193;28;20329;-80
2021/11/11 19:00:55;;;;;;;71.45;23.38;;;;;;;1.06;100.00;99812.81;5075751;28;20052;-80
2021/11/11 19:03:22;;;;;;;73.15;23.98;;;;;;;1.12;100.00;99814.22;5072678;28;20052;-80
2021/11/11 19:05:52;;;;;;;74.47;26.13;;;;;;;1.13;100.00;99821.28;5072572;28;20048;-80
2021/11/11 19:08:23;;;;;;;;;;;;;;;1.11;100.00;99820.53;5074665;28;20127;-80
2021/11/11 19:10:51;;;;;;;69.45;23.30;;;;;;;1.09;100.00;99821.63;5073119;28;19920;-80
2021/11/11 19:13:25;;;;;;;58.13;21.77;;;;;;;1.16;100.00;99821.06;5081864;28;20564;-80
2021/11/11 19:15:53;;;;;;;52.70;23.33;;;;;;;1.27;100.00;99819.47;5092402;28;20139;-80
2021/11/11 19:18:30;;;;;;;53.22;21.42;;;;;;;1.19;100.00;99795.88;5078382;28;20044;-80
2021/11/11 19:20:57;;;;;;;71.35;24.65;;;;;;;1.33;100.00;99819.03;5072352;28;20048;-80
2021/11/11 19:23:24;;;;;;;93.32;24.45;;;;;;;1.25;100.00;99816.88;5072101;28;20053;-80
2021/11/11 19:25:51;;;;;;;74.82;24.42;;;;;;;1.30;100.00;99817.41;5090441;28;20052;-80
2021/11/11 19:28:18;;;;;;;94.05;44.80;;;;;;;1.29;100.00;99810.31;5091016;28;20120;-80
2021/11/11 19:30:46;;;;;;;64.47;23.75;;;;;;;1.50;100.00;99821.31;5091513;28;20440;-80
2021/11/11 19:33:16;;;;;;;63.90;21.40;;;;;;;1.24;100.00;99815.16;5091911;28;20518;-80
2021/11/11 19:35:46;;;;;;;123.05;24.50;;;;;;;1.25;100.00;99814.22;5076284;28;20237;-80
2021/11/11 19:38:24;;;;;;;102.13;23.38;;;;;;;1.15;100.00;99814.00;5071373;28;20488;-80
2021/11/11 19:41:07;;;;;;;78.95;23.23;;;;;;;1.15;100.00;99816.66;5072572;28;20056;-80
2021/11/11 19:43:40;;;;;;;87.88;22.77;;;;;;;1.22;100.00;99817.97;5071317;28;20055;-80
2021/11/11 19:49:08;;;;;;;71.22;22.98;;;;;;;1.19;100.00;99807.47;4997124;28;20053;-80
2021/11/11 20:05:40;;;;;;;78.55;25.65;;;;;;;1.16;100.00;99810.34;5058986;28;20139;-80
2021/11/11 20:08:17;;;;;;;67.75;23.70;;;;;;;1.21;100.00;99805.53;5072092;28;20044;-80
2021/11/11 20:10:46;;;;;;;66.40;22.52;;;;;;;1.24;100.00;99810.66;5071090;28;20506;-80
2021/11/11 20:27:21;;;;;;;96.40;23.42;;;;;;;0.98;100.00;99803.59;5091814;28;20086;-80
2021/11/11 20:28:08;;;;;;;61.03;20.30;;;;;;;1.00;100.00;99799.03;5092184;28;20105;-79
2021/11/11 20:30:33;;;;;;;77.75;22.90;;;;;;;0.93;100.00;99790.53;5076886;28;20059;-79
2021/11/11 20:33:28;;;;;;;111.13;27.17;;;;;;;0.97;100.00;99785.84;5071135;28;20048;-80
2021/11/11 20:41:41;;;;;;;91.35;21.98;;;;;;;0.92;100.00;99775.47;5025459;28;20172;-80
2021/11/11 20:52:46;;;;;;;39.95;18.60;;;;;;;1.15;100.00;99792.56;5057892;28;20132;-80
2021/11/11 20:58:06;;;;;;;48.80;19.50;;;;;;;1.24;100.00;99780.34;5079382;28;20503;-79
2021/11/11 21:00:36;;;;;;;58.15;19.27;;;;;;;1.14;100.00;99776.59;5075668;28;20470;-80
2021/11/11 21:03:05;;;;;;;;;;;;;;;1.18;100.00;99788.81;5080651;28;20048;-79
2021/11/11 21:05:39;;;;;;;49.90;20.05;;;;;;;1.06;100.00;99780.69;5085598;28;19928;-80
2021/11/11 21:08:13;;;;;;;43.58;21.88;;;;;;;1.00;100.00;99778.44;5075061;28;20055;-80
2021/11/11 21:10:55;;;;;;;61.65;23.63;;;;;;;1.04;100.00;99777.28;5055407;28;20091;-80
2021/11/11 21:13:33;;;;;;;72.97;21.65;;;;;;;1.07;100.00;99773.53;5055187;28;20052;-80
2021/11/11 21:16:13;;;;;;;56.92;20.92;;;;;;;1.05;100.00;99768.28;5055157;28;20050;-79
2021/11/11 21:18:42;;;;;;;60.88;22.85;;;;;;;1.08;100.00;99767.19;5055241;28;20096;-80
2021/11/11 21:21:11;;;;;;;51.38;22.42;;;;;;;1.04;100.00;99768.38;5084822;28;20472;-80
2021/11/11 21:23:38;;;;;;;53.10;21.02;;;;;;;1.03;100.00;99764.84;5075065;28;20137;-80
2021/11/11 21:26:07;;;;;;;74.18;23.10;;;;;;;1.09;100.00;99765.38;5075185;28;20056;-80
2021/11/11 21:28:40;;;;;;;68.20;22.08;;;;;;;1.06;100.00;99761.94;5094231;28;20051;-79
2021/11/11 21:31:07;;;;;;;58.45;22.00;;;;;;;1.05;100.00;99754.91;5095458;28;20051;-80
2021/11/11 21:33:39;;;;;;;64.65;22.77;;;;;;;0.99;100.00;99751.78;5077411;28;20048;-80
2021/11/11 21:36:25;;;;;;;65.85;22.45;;;;;;;1.04;100.00;99755.00;5074629;28;20044;-80
2021/11/11 21:38:54;;;;;;;56.30;19.70;;;;;;;1.17;100.00;99749.59;5082652;28;20055;-79
2021/11/11 21:41:24;;;;;;;53.83;20.80;;;;;;;1.06;100.00;99748.53;5074613;28;20049;-80
2021/11/11 21:43:52;;;;;;;62.53;21.42;;;;;;;0.96;100.00;99743.97;5085014;28;20059;-80
2021/11/11 21:46:22;;;;;;;39.80;20.40;;;;;;;1.05;100.00;99743.31;5094319;28;20134;-80
2021/11/11 21:48:49;;;;;;;75.60;22.42;;;;;;;1.00;100.00;99734.75;5093076;28;20129;-80
2021/11/11 21:51:16;;;;;;;61.75;22.83;;;;;;;1.07;100.00;99728.00;5094820;28;20099;-79
2021/11/11 21:53:46;;;;;;;58.17;21.30;;;;;;;0.94;100.00;99733.38;5079424;28;20049;-80
